Latest Coastal Weather Observations for Flinders Island Airport

IDT60701

Issued at 8:02 am EST Sunday 29 May 2016 (issued every 10 minutes, with the page automatically refreshed every 10 minutes)

About coastal observations | Map of coastal stations | Coastal observations for TAS | Marine services | Other Formats
Station Details ID: 099005 Name: FLINDERS ISLAND AIRPORT Lat: -40.09 Lon: 148.00 Height: 9.0 m
Data from the previous 72 hours. | See also: Recent months at Flinders Island Airport
Date/Time
EST
Temp

°C
Wind Pressure Rain
since 9am
mm
Weather Cloud Vis
km
Sea
Height
m
Swell
Dir
 
Speed
knots
Gust
knots
hPa Trend Height
m
Period
s
Dir
29/08:00am 11.5 SSW 9 12 1013.2 - 0.2 - - 10 - - - -
29/07:30am 11.2 SW 11 15 1012.9 - 0.2 - Partly cloudy 10 - - - -
29/07:00am 11.3 SSW 12 14 1012.7 - 0.2 - Partly cloudy 10 - - - -
29/06:30am 11.0 SSW 13 16 1012.5 - 0.2 - - 10 - - - -
29/06:00am 10.3 SW 13 16 1012.1 - 0.2 - Partly cloudy 10 - - - -
29/05:30am 5.4 SSW 11 14 1011.9 - 0.2 - Cloudy 10 - - - -
29/05:00am 4.8 NE 6 8 1011.5 - 0.2 - Partly cloudy 10 - - - -
29/04:30am 3.9 ENE 6 7 1011.2 - 0.2 - - 10 - - - -
29/04:00am 4.7 NE 4 5 1010.9 - 0.2 - - 10 - - - -
29/03:30am 4.7 NE 5 6 1010.6 - 0.2 - Partly cloudy 10 - - - -
29/03:00am 6.4 NE 6 7 1010.4 - 0.2 - Partly cloudy 10 - - - -
29/02:30am 7.0 NE 6 7 1010.2 - 0.2 - Partly cloudy 10 - - - -
29/02:00am 7.1 ENE 6 7 1010.0 - 0.2 - Partly cloudy 10 - - - -
29/01:30am 7.4 NE 5 6 1009.9 - 0.2 - Partly cloudy 10 - - - -
29/01:00am 7.1 ENE 5 6 1009.8 - 0.2 - Partly cloudy 10 - - - -
29/12:30am 7.2 NE 5 6 1009.8 - 0.2 - Partly cloudy 10 - - - -
29/12:00am 6.6 ENE 5 7 1009.7 - 0.2 Recent precip. Cloudy 10 - - - -
 
Date/Time
EST
Temp

°C
Wind Pressure Rain
since 9am
mm
Weather Cloud Vis
km
Sea
Height
m
Swell
Dir
 
Speed
knots
Gust
knots
hPa Trend Height
m
Period
s
Dir
28/11:30pm 6.9 ENE 5 7 1009.8 - 0.0 - Partly cloudy 10 - - - -
28/11:00pm 5.7 NE 7 9 1009.7 - 0.0 - Partly cloudy 10 - - - -
28/10:30pm 4.3 NE 6 8 1009.7 - 0.0 - Partly cloudy 10 - - - -
28/10:00pm 4.6 NE 5 7 1009.6 - 0.0 - - 10 - - - -
28/09:30pm 5.7 SW 8 10 1009.5 - 0.0 - - 10 - - - -
28/09:00pm 6.1 WSW 9 12 1009.6 - 0.0 - Mostly clear 10 - - - -
28/08:30pm 6.7 WSW 11 14 1009.5 - 0.0 - Partly cloudy 10 - - - -
28/08:00pm 8.2 WSW 9 12 1009.5 - 0.0 - Partly cloudy 10 - - - -
28/07:30pm 11.0 WSW 10 13 1009.2 - 0.0 - Partly cloudy 10 - - - -
28/07:00pm 11.3 WSW 11 13 1009.0 - 0.0 - Partly cloudy 10 - - - -
28/06:30pm 11.1 SW 9 13 1008.9 - 0.0 - Partly cloudy 10 - - - -
28/06:00pm 11.1 SW 10 13 1008.6 - 0.0 - - 10 - - - -
28/05:30pm 11.0 WSW 11 14 1008.3 - 0.0 - Partly cloudy 10 - - - -
28/05:00pm 11.6 SW 11 13 1008.2 - 0.0 - Partly cloudy 10 - - - -
28/04:30pm 11.9 WSW 11 14 1008.0 - 0.0 - Partly cloudy 10 - - - -
28/04:00pm 12.4 WSW 12 15 1007.9 - 0.0 - Partly cloudy 10 - - - -
28/03:30pm 12.5 WSW 12 15 1007.6 - 0.0 - - 10 - - - -
28/03:00pm 12.7 WSW 11 13 1007.2 - 0.0 - - 10 - - - -
28/02:30pm 13.1 WSW 10 12 1007.0 - 0.0 - - 10 - - - -
28/02:00pm 13.2 WSW 11 14 1006.9 - 0.0 - Partly cloudy 10 - - - -
28/01:30pm 13.3 WSW 11 14 1006.8 - 0.0 - - 10 - - - -
28/01:00pm 13.4 WSW 13 15 1006.7 - 0.0 - - 10 - - - -
28/12:30pm 13.8 WSW 12 15 1006.7 - 0.0 - - 10 - - - -
28/12:00pm 13.7 WSW 12 14 1006.8 - 0.0 - Mostly clear 10 - - - -
28/11:30am 13.9 WSW 11 13 1007.0 - 0.0 - - 10 - - - -
28/11:00am 13.9 WSW 10 13 1007.4 - 0.0 - - 10 - - - -
28/10:30am 13.7 WSW 9 12 1007.5 - 0.0 - - 10 - - - -
28/10:00am 13.1 WSW 8 10 1007.4 - 0.0 - - 10 - - - -
28/09:30am 11.1 WSW 8 9 1007.3 - 0.0 - Partly cloudy 10 - - - -
28/09:00am 10.0 WNW 2 7 1007.3 - 2.8 - Cloudy 10 - - - -
28/08:30am 9.2 CALM 0 0 1007.3 - 2.8 - Partly cloudy 10 - - - -
28/08:00am 9.5 NE 3 4 1007.2 - 2.8 - Partly cloudy 10 - - - -
28/07:30am 9.3 NE 4 5 1007.2 - 2.8 - Partly cloudy 10 - - - -
28/07:10am 9.4 N 4 4 1007.1 - 2.8 - Partly cloudy 10 - - - -
28/07:00am 9.3 NNE 3 4 1007.0 - 2.8 - Partly cloudy 5 - - - -
28/06:41am 9.3 NNW 1 4 1006.9 - 2.6 - Partly cloudy 5 - - - -
28/06:30am 9.4 CALM 0 0 1006.8 - 2.6 - Partly cloudy 10 - - - -
28/06:00am 9.4 CALM 0 1 1006.5 - 2.6 - Cloudy 10 - - - -
28/05:30am 9.3 NE 4 5 1006.3 - 2.6 - Partly cloudy 10 - - - -
28/05:00am 9.4 NE 5 6 1006.3 - 2.6 - Partly cloudy 10 - - - -
28/04:30am 9.3 NE 7 8 1006.4 - 2.6 - Partly cloudy 10 - - - -
28/04:00am 9.6 ENE 6 7 1006.5 - 2.6 - Cloudy 10 - - - -
28/03:30am 10.0 ESE 5 8 1006.5 - 2.6 - Cloudy 10 - - - -
28/03:00am 10.1 SE 5 7 1006.6 - 2.6 - Mostly cloudy 10 - - - -
28/02:30am 10.6 S 7 12 1006.7 - 2.6 - Cloudy 10 - - - -
28/02:00am 10.9 S 9 13 1006.6 - 2.6 - Partly cloudy 10 - - - -
28/01:30am 10.7 S 12 15 1006.4 - 2.6 - Partly cloudy 10 - - - -
28/01:00am 10.6 S 12 16 1006.3 - 2.6 - Cloudy 10 - - - -
28/12:36am 10.6 S 10 15 1006.4 - 2.6 - Partly cloudy 10 - - - -
28/12:30am 10.5 S 10 14 1006.4 - 2.6 - Partly cloudy 10 - - - -
28/12:08am 10.5 S 10 14 1006.6 - 2.2 - Partly cloudy 5 - - - -
28/12:00am 10.7 S 11 16 1006.6 - 2.2 - Cloudy 9 - - - -
 
Date/Time
EST
Temp

°C
Wind Pressure Rain
since 9am
mm
Weather Cloud Vis
km
Sea
Height
m
Swell
Dir
 
Speed
knots
Gust
knots
hPa Trend Height
m
Period
s
Dir
27/11:30pm 10.4 SSE 7 11 1006.6 - 2.2 - Partly cloudy 10 - - - -
27/11:00pm 10.2 SSE 7 12 1006.5 - 2.2 - Partly cloudy 10 - - - -
27/10:30pm 10.4 SSE 8 12 1006.4 - 2.2 - Cloudy 10 - - - -
27/10:00pm 10.4 SSE 5 8 1006.4 - 2.2 - Partly cloudy 10 - - - -
27/09:53pm 10.4 SSE 5 8 1006.4 - 2.2 - Partly cloudy 10 - - - -
27/09:33pm 10.6 SE 5 8 1006.5 - 2.0 - Partly cloudy 5 - - - -
27/09:30pm 10.7 SSE 6 8 1006.5 - 2.0 - Partly cloudy 7 - - - -
27/09:00pm 10.8 S 8 13 1006.2 - 1.8 - Cloudy 10 - - - -
27/08:30pm 10.7 SSW 10 13 1006.1 - 1.8 - Cloudy 10 - - - -
27/08:00pm 10.4 S 9 11 1006.0 - 1.8 - Partly cloudy 10 - - - -
27/07:30pm 10.7 S 9 12 1005.9 - 1.6 - Partly cloudy 10 - - - -
27/07:00pm 10.5 SSW 8 11 1005.7 - 1.4 - Partly cloudy 10 - - - -
27/06:30pm 10.6 SSW 9 13 1005.3 - 1.2 - Partly cloudy 10 - - - -
27/06:00pm 10.5 SSW 8 11 1005.2 - 1.2 Recent precip. Cloudy 10 - - - -
27/05:30pm 10.5 SSW 8 9 1004.8 - 1.0 - Cloudy 10 - - - -
27/05:00pm 10.6 SW 8 9 1004.6 - 1.0 - Partly cloudy 10 - - - -
27/04:30pm 10.8 SSW 8 10 1004.4 - 0.6 - Partly cloudy 10 - - - -
27/04:00pm 10.7 SSW 8 11 1004.0 - 0.6 - Cloudy 10 - - - -
27/03:30pm 10.7 SSW 8 10 1003.8 - 0.6 - Partly cloudy 10 - - - -
27/03:00pm 10.9 SSW 11 14 1003.4 - 0.4 - Cloudy 10 - - - -
27/02:30pm 11.0 S 7 9 1003.1 - 0.4 - Partly cloudy 10 - - - -
27/02:00pm 11.0 S 7 10 1002.9 - 0.4 - Partly cloudy 10 - - - -
27/01:30pm 10.9 S 8 11 1002.8 - 0.4 - Partly cloudy 10 - - - -
27/01:00pm 10.5 SSE 7 11 1002.9 - 0.4 - Cloudy 10 - - - -
27/12:30pm 10.4 SSE 5 8 1002.9 - 0.2 - Partly cloudy 10 - - - -
27/12:00pm 10.6 S 10 16 1002.9 - 0.2 Recent precip. Cloudy 10 - - - -
27/11:30am 10.4 SSE 8 12 1003.0 - 0.2 - Cloudy 10 - - - -
27/11:00am 10.6 S 10 17 1003.1 - 0.0 - Partly cloudy 10 - - - -
27/10:30am 10.9 S 9 14 1003.0 - 0.0 - Partly cloudy 10 - - - -
27/10:00am 11.1 S 13 17 1002.8 - 0.0 - Cloudy 10 - - - -
27/09:30am 11.1 SSW 15 19 1002.5 - 0.0 - Partly cloudy 10 - - - -
27/09:00am 10.7 SSW 13 16 1002.4 - 15.8 Recent precip. Cloudy 10 - - - -
27/08:30am 10.9 SSW 18 22 1002.1 - 15.6 - Cloudy 10 - - - -
27/08:00am 11.0 SSW 15 18 1001.7 - 15.6 - Partly cloudy 10 - - - -
27/07:30am 10.7 SSW 15 17 1001.5 - 15.6 - Partly cloudy 10 - - - -
27/07:00am 10.4 SSW 15 18 1001.4 - 15.6 - Partly cloudy 10 - - - -
27/06:30am 10.5 SSW 14 17 1001.3 - 15.6 - Partly cloudy 10 - - - -
27/06:00am 10.6 SSW 16 18 1001.1 - 15.6 Recent precip. Cloudy 10 - - - -
27/05:30am 10.3 SSW 16 20 1001.0 - 15.4 - Partly cloudy 10 - - - -
27/05:00am 10.3 SSW 19 21 1000.9 - 15.4 - Partly cloudy 10 - - - -
27/04:30am 10.4 SSW 17 21 1000.9 - 15.2 - Partly cloudy 10 - - - -
27/04:00am 10.6 S 15 21 1000.6 - 15.2 - Partly cloudy 10 - - - -
27/03:30am 10.9 S 15 19 1000.5 - 15.2 - Partly cloudy 10 - - - -
27/03:00am 11.1 SSW 16 19 1000.5 - 15.2 - Cloudy 10 - - - -
27/02:30am 10.9 S 13 17 1000.4 - 15.2 - Partly cloudy 10 - - - -
27/02:00am 11.0 SSW 14 18 1000.3 - 15.2 - Partly cloudy 10 - - - -
27/01:45am 10.9 SSW 15 17 1000.2 - 15.2 - Partly cloudy 10 - - - -
27/01:30am 11.0 SW 13 17 1000.2 - 15.2 - Partly cloudy 10 - - - -
27/01:00am 10.6 SSW 13 16 1000.3 - 15.2 - Partly cloudy 10 - - - -
27/12:58am 10.6 SSW 13 16 1000.3 - 15.2 - Partly cloudy 10 - - - -
27/12:30am 10.2 S 11 15 1000.4 - 15.2 - Partly cloudy 10 - - - -
27/12:00am 10.2 S 12 16 1000.7 - 15.2 Recent precip. Cloudy 10 - - - -
 
Date/Time
EST
Temp

°C
Wind Pressure Rain
since 9am
mm
Weather Cloud Vis
km
Sea
Height
m
Swell
Dir
 
Speed
knots
Gust
knots
hPa Trend Height
m
Period
s
Dir
26/11:30pm 10.2 S 12 17 1000.7 - 15.0 - Partly cloudy 10 - - - -
26/11:12pm 10.3 S 14 18 1000.7 - 15.0 - Partly cloudy 10 - - - -
26/11:00pm 10.0 S 10 14 1000.7 - 15.0 - Partly cloudy 10 - - - -
26/10:51pm 10.1 S 10 14 1000.7 - 15.0 - Partly cloudy 10 - - - -
26/10:30pm 10.0 S 9 12 1000.7 - 14.8 - Partly cloudy 10 - - - -
26/10:00pm 9.7 SSE 10 15 1000.5 - 14.8 - Partly cloudy 10 - - - -
26/09:30pm 9.9 SSE 11 19 1000.5 - 14.8 - Partly cloudy 10 - - - -
26/09:00pm 10.3 S 11 16 1000.5 - 14.6 Recent precip. Cloudy 10 - - - -
26/08:59pm 10.3 S 11 16 1000.5 - 14.6 - Partly cloudy 10 - - - -
26/08:58pm 10.3 S 11 16 1000.5 - 14.6 - Partly cloudy 10 - - - -
26/08:30pm 10.1 SSE 10 17 1000.1 - 14.0 - Partly cloudy 7 - - - -
26/08:21pm 10.3 SSE 11 18 1000.0 - 13.8 - Partly cloudy 5 - - - -
26/08:01pm 10.6 SSE 9 13 999.8 - 13.0 - Partly cloudy 9 - - - -
26/08:00pm 10.6 SSE 9 13 999.8 - 12.8 - Partly cloudy 10 - - - -
26/07:49pm 10.8 S 9 14 999.8 - 12.6 - Partly cloudy 5 - - - -
26/07:45pm 10.8 SSE 10 15 999.8 - 12.4 - Partly cloudy 5 - - - -
26/07:30pm 10.9 S 10 14 999.6 - 11.8 - Partly cloudy 8 - - - -
26/07:25pm 10.9 S 10 14 999.6 - 11.6 - Partly cloudy 8 - - - -
26/07:15pm 10.9 S 14 19 999.5 - 11.4 - Partly cloudy 5 - - - -
26/07:03pm 11.0 S 13 18 999.5 - 10.8 - Partly cloudy 7 - - - -
26/07:00pm 11.0 S 13 21 999.5 - 10.8 - Partly cloudy 6 - - - -
26/06:52pm 11.1 S 15 21 999.4 - 10.4 - Partly cloudy 5 - - - -
26/06:43pm 11.1 S 15 22 999.3 - 10.0 - Partly cloudy 7 - - - -
26/06:41pm 11.1 S 15 22 999.3 - 10.0 - Partly cloudy 8 - - - -
26/06:30pm 11.2 S 15 22 999.0 - 9.6 - Partly cloudy 5 - - - -
26/06:19pm 11.7 ESE 6 14 998.7 - 8.6 - Partly cloudy 5 - - - -
26/06:11pm 12.0 SE 5 7 998.5 - 7.8 - Partly cloudy 8 - - - -
26/06:00pm 12.1 SSE 3 6 998.3 - 7.6 Rain Cloudy 9 - - - -
26/05:30pm 12.3 SSW 9 14 998.1 - 7.2 - Partly cloudy 9 - - - -
26/05:00pm 12.4 SW 16 19 998.1 - 6.6 - Partly cloudy 10 - - - -
26/04:42pm 12.4 SSW 15 18 998.0 - 6.2 - Partly cloudy 9 - - - -
26/04:30pm 12.2 SSW 16 19 998.0 - 6.0 - Partly cloudy 10 - - - -
26/04:00pm 12.5 SSW 17 20 997.8 - 5.6 - Partly cloudy 10 - - - -
26/03:30pm 12.7 SW 15 19 997.7 - 5.2 - Partly cloudy - - - - -
26/03:00pm 12.7 SW 13 17 997.9 - 4.0 Recent precip. Cloudy - - - - -
26/02:51pm 12.7 SW 13 18 997.9 - 4.0 - Partly cloudy 10 - - - -
26/02:35pm 12.5 NNW 8 12 998.0 - 4.0 - Partly cloudy 10 - - - -
26/02:30pm 12.4 NNW 9 14 998.0 - 4.0 - Partly cloudy 10 - - - -
26/02:00pm 12.4 NNW 8 11 998.4 - 3.6 - Partly cloudy 10 - - - -
26/01:30pm 12.3 NNW 8 11 998.7 - 3.6 - Partly cloudy 7 - - - -
26/01:10pm 12.2 NNW 7 9 998.9 - 3.4 - Partly cloudy 10 - - - -
26/01:00pm 12.2 NW 8 11 999.0 - 3.2 - Partly cloudy 9 - - - -
26/12:30pm 12.2 NNW 6 9 999.4 - 2.0 - Partly cloudy 7 - - - -
26/12:00pm 12.2 NNW 7 9 999.7 - 1.4 Rain Mostly cloudy 7 - - - -
26/11:30am 12.3 NNW 6 9 1000.2 - 0.8 - Partly cloudy 10 - - - -
26/11:25am 12.3 NNW 6 8 1000.3 - 0.8 - Partly cloudy 10 - - - -
26/11:20am 12.3 NNW 6 8 1000.4 - 0.8 - Partly cloudy 10 - - - -
26/11:19am 12.3 NNW 6 9 1000.4 - 0.8 - Partly cloudy 9 - - - -
26/11:02am 12.4 NNW 6 8 1000.8 - 0.6 - Partly cloudy 5 - - - -
26/11:00am 12.4 NNW 6 8 1000.9 - 0.6 - Partly cloudy 7 - - - -
26/10:57am 12.4 NNW 6 8 1000.9 - 0.6 - Partly cloudy 9 - - - -
26/10:34am 12.3 NNW 6 8 1001.3 - 0.6 - Partly cloudy 9 - - - -
26/10:33am 12.3 NNW 6 8 1001.3 - 0.6 - Partly cloudy 9 - - - -
26/10:30am 12.2 NNW 6 8 1001.4 - 0.4 - Partly cloudy 8 - - - -
26/10:15am 12.1 NNW 7 9 1001.7 - 0.4 - Partly cloudy 5 - - - -
26/10:00am 12.0 NNW 6 9 1001.9 - 0.4 - Partly cloudy 4 - - - -
26/09:52am 12.0 NNW 5 7 1001.9 - 0.2 - Partly cloudy 5 - - - -
26/09:42am 11.9 NNW 6 8 1001.9 - 0.2 - Partly cloudy 9 - - - -
26/09:30am 11.9 NNW 7 10 1002.1 - 0.2 - Partly cloudy 5 - - - -
26/09:00am 11.9 NNW 5 8 1002.4 - 5.2 Rain Cloudy 3 - - - -
26/08:49am 12.0 NNW 5 7 1002.4 - 5.0 - Partly cloudy 5 - - - -
26/08:36am 12.0 NNW 6 8 1002.4 - 4.8 - Partly cloudy 9 - - - -
26/08:30am 12.0 NNW 6 9 1002.4 - 4.8 - Partly cloudy 10 - - - -

Other Formats:

Comma delimited format used in spreadsheet applications
http://www.bom.gov.au/fwo/IDT60701/IDT60701.94980.axf

JavaScript Object Notation format (JSON) in row-major order
http://www.bom.gov.au/fwo/IDT60701/IDT60701.94980.json